PKWAPHOG

Guest
Details From PKWA - Bucholz Aaf
To PHOG - Kahului
Flight Number -
Tags Generated
Created
Modified
Stats Distance 2,200 nm / 4,074 km
Max Altitude 0 ft / 0 m
Waypoints 3
Social Downloads 1
Likes 0
Share VATSIM

Download

Looking for another format? Having issues loading an existing format? Contact us
Advertisement - Login to hide

Notes

Generated

Route

PKWA R0450 PHOG

ID Type Via Altitude Latitude Longitude Leg Dist Tot Dist Heading (true) Name
O PKWA APT - 0 ft / 0 m 8.71740˚ 167.72284˚ - 0 nm - -
R0450 FIX - 0 ft / 0 m 20.88914˚ -156.43632˚ 2199 nm 2199 nm 67° / 76° -
O PHOG APT - 0 ft / 0 m 20.89802˚ -156.43710˚ 0 nm 2199 nm 355° / 355° -

Altitude Profile

Advertisement - Login to hide

Weather


0- 5 10 15 20 25 30 35+ Temperature / ° C

Clouds and Precipitation
Forecast for 2018-05-27 12:00 UTC. Updated 3 hours ago

Ground ~20,000 ft ~40,000 ft Winds

PKWA

Details ICAO PKWA (KWA)
Name BUCHOLZ AAF
Region Marshall Islands
Timezone Pacific/Kwajalein (UTC+12.0)
Stats Elevation 9 ft / 3 m (AMSL)
Location 8.720121° 167.731662°
Runways 1
Magnetic Variation 7.621° E

METAR

PKWA 271420Z AUTO 07014G19KT 7SM SCT017 29/25 A2978 RMK AO2 T02850252

Decode

TAF

TAF PKWA 271129Z 2712/2812 08016KT 6SM HZ FEW020 SCT040 BKN160 FM271800 08016KT 6SM HZ VCSH SCT018 SCT040 BKN160

Decode

Departure Runways

ID Width Length Bearing (true) Bearing (mag) Surface Threshold Offset Overrun Length
06 198 ft / 60 m 6,666 ft / 2,032 m 72.67° 65.05° Asphalt 0 ft / 0 m 0 ft / 0 m
24 198 ft / 60 m 6,666 ft / 2,032 m 252.67° 245.05° Asphalt 0 ft / 0 m 0 ft / 0 m

PHOG

Details ICAO PHOG (OGG)
Name Kahului
Region USA (Hawaii)
Timezone Pacific/Honolulu (UTC-10.0)
Stats Elevation 54 ft / 16 m (AMSL)
Location 20.898975° -156.430460°
Runways 2
Magnetic Variation 9.514° E

METAR

PHOG 271354Z AUTO A2997

Decode

TAF

PHOG 271123Z 2712/2812 06012KT P6SM FEW030 SCT050 FM272000 05014G22KT P6SM FEW030 SCT050 FM280500 05012KT P6SM FEW030 SCT050 AMD NOT SKED TIL 271600

Decode

Destination Runways

ID Width Length Bearing (true) Bearing (mag) Surface Threshold Offset Overrun Length
02 150 ft / 46 m 7,013 ft / 2,138 m 34.81° 25.30° Asphalt 0 ft / 0 m 0 ft / 0 m
05 150 ft / 46 m 4,989 ft / 1,521 m 64.91° 55.40° Asphalt 0 ft / 0 m 0 ft / 0 m
20 150 ft / 46 m 7,013 ft / 2,138 m 214.81° 205.30° Asphalt 0 ft / 0 m 0 ft / 0 m
23 150 ft / 46 m 4,989 ft / 1,521 m 244.91° 235.40° Asphalt 0 ft / 0 m 0 ft / 0 m

Approach Navaids

Runway Type Ident Frequency Range Bearing (true) Bearing (mag) Slope Elevation
02 Localiser IOGG 110.10 MHz 18 nm / 33 km 34.81° 25.30° - 46 ft / 14 m (AMSL)
02 Glidescope IOGG 110.10 MHz 10 nm / 19 km 34.81° 25.30° 3.00° 46 ft / 14 m (AMSL)
02 DME IOGG 110.10 MHz 18 nm / 33 km - - - 46 ft / 14 m (AMSL)